Aviation Digital Data Service (ADDS)

Output produced by METARs form (0326 UTC 21 September 2017)
found at http://www.aviationweather.gov/adds/metars/
 
GGOV 210300Z 31004KT 9999 FEW014 27/26 Q1010 NOSIG
TAF GGOV 202300Z 2100/2124 28006KT 9999 SCT014 PRO30 
     TEMPO 2116/2122 4000 TSRA SCT005 BKN014 FEW020CB